Time;durP1;ratioP1;P1;durP2;ratioP2;P2;SDS_P1;SDS_P2;PMS_P1;PMS_P2;Temp;Humidity;BMP_temperature;BMP_pressure;BME280_temperature;BME280_humidity;BME280_pressure;Samples;Min_cycle;Max_cycle;Signal;HPM_P1;HPM_P2
2023/04/30 00:01:50;;;;;;;7.3;5.8;;;;;;;12.41;91.35742;938.2644;;;;
2023/04/30 00:04:27;;;;;;;8.1;5.8;;;;;;;12.46;91.01465;938.3295;;;;
2023/04/30 00:07:07;;;;;;;6.7;5.6;;;;;;;12.53;90.77344;938.2785;;;;
2023/04/30 00:09:36;;;;;;;8.2;5.6;;;;;;;12.53;90.61523;938.2977;;;;
2023/04/30 00:12:20;;;;;;;8.5;6;;;;;;;12.43;91.08789;938.3566;;;;
2023/04/30 00:14:57;;;;;;;6.6;5.6;;;;;;;12.39;91.36621;938.341;;;;
2023/04/30 00:17:35;;;;;;;7.9;6.4;;;;;;;12.44;91.2041;938.3191;;;;
2023/04/30 00:20:13;;;;;;;6.1;5.5;;;;;;;12.49;90.7793;938.3272;;;;
2023/04/30 00:22:50;;;;;;;6.7;6;;;;;;;12.48;90.68359;938.3176;;;;
2023/04/30 00:25:28;;;;;;;6.5;5.8;;;;;;;12.5;90.70117;938.3631;;;;
2023/04/30 00:28:08;;;;;;;7.3;6;;;;;;;12.53;90.71777;938.4431;;;;
2023/04/30 00:33:22;;;;;;;7;5.8;;;;;;;12.5;91.1123;938.3926;;;;
2023/04/30 00:35:59;;;;;;;7.4;5.7;;;;;;;12.53;91.07227;938.3695;;;;
2023/04/30 00:38:40;;;;;;;6.8;5.7;;;;;;;12.55;90.7334;938.42;;;;
2023/04/30 00:41:17;;;;;;;6.1;5.5;;;;;;;12.47;90.87695;938.4741;;;;
2023/04/30 00:43:46;;;;;;;6.9;6;;;;;;;12.44;91.02246;938.4844;;;;
2023/04/30 00:46:35;;;;;;;6.6;5.9;;;;;;;12.5;90.85059;938.5428;;;;
2023/04/30 00:49:03;;;;;;;7.8;6.7;;;;;;;12.48;90.87891;938.5676;;;;
2023/04/30 00:51:41;;;;;;;7.3;6.4;;;;;;;12.52;90.80859;938.5637;;;;
2023/04/30 00:54:07;;;;;;;7.8;6.6;;;;;;;12.49;90.85938;938.5061;;;;
2023/04/30 00:56:45;;;;;;;9.2;6.7;;;;;;;12.28;92.07715;938.5108;;;;
2023/04/30 00:59:44;;;;;;;9.2;7;;;;;;;12.15;93.1377;938.5707;;;;
2023/04/30 01:02:04;;;;;;;10.5;7.1;;;;;;;12.11;93.30176;938.5355;;;;
2023/04/30 01:04:42;;;;;;;8.4;7;;;;;;;12.11;93.72559;938.5586;;;;
2023/04/30 01:07:21;;;;;;;8.3;6.9;;;;;;;12.08;93.06641;938.529;;;;
2023/04/30 01:09:59;;;;;;;8.6;6.7;;;;;;;11.76;93.76172;938.5825;;;;
2023/04/30 01:12:40;;;;;;;9.2;7.3;;;;;;;11.74;94.16992;938.4427;;;;
2023/04/30 01:15:22;;;;;;;8.1;7;;;;;;;11.58;94.40039;938.5389;;;;
2023/04/30 01:18:06;;;;;;;9.2;7.2;;;;;;;11.49;94.69141;938.5662;;;;
2023/04/30 01:20:48;;;;;;;8.8;7;;;;;;;11.57;94.66113;938.5754;;;;
2023/04/30 01:23:28;;;;;;;8.4;6.7;;;;;;;11.57;94.58105;938.6138;;;;
2023/04/30 01:25:58;;;;;;;9.5;7.1;;;;;;;11.51;93.77637;938.615;;;;
2023/04/30 01:28:47;;;;;;;7.7;6.3;;;;;;;11.46;91.78711;938.5732;;;;
2023/04/30 01:31:27;;;;;;;7.4;6.2;;;;;;;11.4;92.57617;938.6141;;;;
2023/04/30 01:34:05;;;;;;;9.5;6.5;;;;;;;11.33;93.22266;938.5856;;;;
2023/04/30 01:36:42;;;;;;;7.7;6.1;;;;;;;11.35;92.49609;938.6105;;;;
2023/04/30 01:39:26;;;;;;;8.4;5.9;;;;;;;11.36;92.49805;938.5739;;;;
2023/04/30 01:41:57;;;;;;;8.2;6.2;;;;;;;11.4;92.06152;938.5909;;;;
2023/04/30 01:44:36;;;;;;;8.3;5.9;;;;;;;11.44;91.7959;938.5756;;;;
2023/04/30 01:47:14;;;;;;;7.8;6.4;;;;;;;11.32;91.16309;938.6151;;;;
2023/04/30 01:49:46;;;;;;;8;6;;;;;;;11.25;92.26855;938.605;;;;
2023/04/30 01:52:11;;;;;;;7.4;5.9;;;;;;;11.18;92.17578;938.5461;;;;
2023/04/30 01:54:40;;;;;;;7.4;5.9;;;;;;;11.23;92.41602;938.5754;;;;
2023/04/30 01:57:05;;;;;;;8.1;6.3;;;;;;;11.33;91.34863;938.6223;;;;
2023/04/30 02:06:52;;;;;;;9.5;6.4;;;;;;;11.24;92.17578;938.5962;;;;
2023/04/30 02:09:17;;;;;;;8.8;5.8;;;;;;;11.13;92.24414;938.5767;;;;
2023/04/30 02:11:42;;;;;;;9.3;6.9;;;;;;;11.18;91.5791;938.6696;;;;
2023/04/30 02:14:07;;;;;;;8.8;6.7;;;;;;;11.02;92.92969;938.7385;;;;
2023/04/30 02:16:38;;;;;;;7.3;6.2;;;;;;;10.99;92.93555;938.7045;;;;
2023/04/30 02:19:11;;;;;;;8.4;6.3;;;;;;;11.09;92.45313;938.7215;;;;
2023/04/30 02:21:41;;;;;;;7.1;5.7;;;;;;;11.19;92.21191;938.68;;;;
2023/04/30 02:24:06;;;;;;;7.9;6.1;;;;;;;11.25;91.8457;938.6624;;;;
2023/04/30 02:26:34;;;;;;;7.9;6.4;;;;;;;11.17;91.17676;938.5994;;;;
2023/04/30 02:29:11;;;;;;;8.6;6.6;;;;;;;11.18;91.37305;938.6464;;;;
2023/04/30 02:31:41;;;;;;;7.7;6.4;;;;;;;11.33;90.31836;938.6239;;;;
2023/04/30 02:34:11;;;;;;;7;5.8;;;;;;;11.37;90.12207;938.5636;;;;
2023/04/30 02:36:36;;;;;;;8.9;6.5;;;;;;;11.4;89.58984;938.6498;;;;
2023/04/30 02:39:01;;;;;;;8.2;6.1;;;;;;;11.37;89.76758;938.5947;;;;
2023/04/30 02:41:33;;;;;;;9.2;6.5;;;;;;;11.42;89.58203;938.6614;;;;
2023/04/30 02:44:07;;;;;;;8.2;6.5;;;;;;;11.4;89.39551;938.5494;;;;
2023/04/30 02:46:40;;;;;;;9.3;6.6;;;;;;;11.4;89.22363;938.6108;;;;
2023/04/30 02:49:09;;;;;;;9.8;6.6;;;;;;;11.47;89.31934;938.6298;;;;
2023/04/30 02:51:37;;;;;;;7.7;6;;;;;;;11.52;88.79004;938.5672;;;;
2023/04/30 02:54:09;;;;;;;7.4;5.8;;;;;;;11.49;88.75098;938.5535;;;;
2023/04/30 02:56:40;;;;;;;7.1;5.7;;;;;;;11.51;88.70898;938.5624;;;;
2023/04/30 02:59:05;;;;;;;8.4;6.4;;;;;;;11.57;88.49219;938.5754;;;;
2023/04/30 03:01:34;;;;;;;8.2;6.1;;;;;;;11.51;88.77734;938.5018;;;;
2023/04/30 03:04:09;;;;;;;8.9;6.5;;;;;;;11.42;89.36523;938.5563;;;;
2023/04/30 03:06:37;;;;;;;8.7;6.5;;;;;;;11.46;89.15723;938.5669;;;;
2023/04/30 03:09:02;;;;;;;7.9;6.4;;;;;;;11.55;88.95801;938.5826;;;;
2023/04/30 03:11:27;;;;;;;9.5;6.5;;;;;;;11.62;88.73047;938.6231;;;;
2023/04/30 03:13:56;;;;;;;9.6;6.4;;;;;;;11.64;88.83789;938.6121;;;;
2023/04/30 03:16:23;;;;;;;8.3;6.7;;;;;;;11.65;88.79492;938.6497;;;;
2023/04/30 03:22:45;;;;;;;8.4;6.3;;;;;;;11.5;89.75977;938.725;;;;
2023/04/30 03:25:13;;;;;;;10.2;7.5;;;;;;;11.29;90.63184;938.7233;;;;
2023/04/30 03:27:38;;;;;;;10.5;7.5;;;;;;;11.24;90.98633;938.7523;;;;
2023/04/30 03:30:06;;;;;;;10.4;7.1;;;;;;;11.28;90.99414;938.7559;;;;
2023/04/30 03:32:31;;;;;;;9.5;6.9;;;;;;;11.26;91.03711;938.7287;;;;
2023/04/30 03:34:58;;;;;;;10.4;7.7;;;;;;;11.25;90.76074;938.6855;;;;
2023/04/30 03:37:23;;;;;;;8.9;7.4;;;;;;;11.18;91.09863;938.6496;;;;
2023/04/30 03:39:51;;;;;;;10.4;7.7;;;;;;;11.18;91.32715;938.5691;;;;
2023/04/30 03:42:21;;;;;;;13.3;7.7;;;;;;;11.13;91.51172;938.5034;;;;
2023/04/30 03:44:46;;;;;;;10.8;7.7;;;;;;;11.11;91.56738;938.5926;;;;
2023/04/30 03:47:20;;;;;;;10.9;7.6;;;;;;;11.15;91.29883;938.6239;;;;
2023/04/30 03:49:53;;;;;;;15.1;11;;;;;;;11.13;91.61719;938.5815;;;;
2023/04/30 03:52:14;;;;;;;12.3;8.8;;;;;;;11.09;91.5957;938.551;;;;
2023/04/30 03:54:39;;;;;;;14.4;10;;;;;;;11.19;91.20313;938.5994;;;;
2023/04/30 03:57:09;;;;;;;10.7;8.7;;;;;;;11.18;91.19238;938.5898;;;;
2023/04/30 03:59:44;;;;;;;13.8;9.4;;;;;;;11.13;90.91992;938.5226;;;;
2023/04/30 04:02:33;;;;;;;11.5;8.1;;;;;;;11.11;91.56543;938.555;;;;
2023/04/30 04:05:03;;;;;;;11.5;8.4;;;;;;;11.07;91.2832;938.5492;;;;
2023/04/30 04:07:28;;;;;;;11.9;8.4;;;;;;;11.18;91.03027;938.5946;;;;
2023/04/30 04:09:55;;;;;;;12.7;8.4;;;;;;;11.18;91.07813;938.5485;;;;
2023/04/30 04:12:20;;;;;;;12.4;8.9;;;;;;;11.19;90.81641;938.5078;;;;
2023/04/30 04:14:47;;;;;;;10.5;7.6;;;;;;;11.24;90.61035;938.4822;;;;
2023/04/30 04:17:12;;;;;;;11.8;7.9;;;;;;;11.33;90.27344;938.5386;;;;
2023/04/30 04:19:39;;;;;;;12.1;8.3;;;;;;;11.39;89.86523;938.5486;;;;
2023/04/30 04:22:05;;;;;;;11.9;7.8;;;;;;;11.48;89.28516;938.5;;;;
2023/04/30 04:24:30;;;;;;;11.6;8.1;;;;;;;11.37;89.41309;938.6058;;;;
2023/04/30 04:26:56;;;;;;;11.2;8;;;;;;;11.39;89.42676;938.6036;;;;
2023/04/30 04:29:22;;;;;;;11;8.3;;;;;;;11.34;89.49707;938.62;;;;
2023/04/30 04:31:48;;;;;;;12.1;8.5;;;;;;;11.33;89.90723;938.5354;;;;
2023/04/30 04:34:12;;;;;;;11;8.3;;;;;;;11.26;90.20117;938.5916;;;;
2023/04/30 04:36:40;;;;;;;12.9;9.1;;;;;;;11.3;90.11914;938.5655;;;;
2023/04/30 04:39:10;;;;;;;12.5;9;;;;;;;11.36;90.0293;938.6186;;;;
2023/04/30 04:41:42;;;;;;;11.6;8.1;;;;;;;11.45;89.71387;938.6122;;;;
2023/04/30 04:44:07;;;;;;;12.3;9;;;;;;;11.39;89.62402;938.582;;;;
2023/04/30 04:46:33;;;;;;;12.6;9;;;;;;;11.34;90.1377;938.6287;;;;
2023/04/30 04:49:06;;;;;;;11.5;8.5;;;;;;;11.36;89.8916;938.5405;;;;
2023/04/30 04:51:32;;;;;;;12.8;9;;;;;;;11.33;89.89355;938.5617;;;;
2023/04/30 04:53:57;;;;;;;13.8;9.5;;;;;;;11.18;90.37793;938.5508;;;;
2023/04/30 04:56:29;;;;;;;13.1;8.8;;;;;;;11.2;90.70215;938.5533;;;;
2023/04/30 04:59:12;;;;;;;12.1;9.2;;;;;;;11.22;90.44531;938.5888;;;;
2023/04/30 05:01:37;;;;;;;11.9;9;;;;;;;11.27;90.37598;938.4641;;;;
2023/04/30 05:04:05;;;;;;;12.3;8.9;;;;;;;11.25;90.29004;938.5787;;;;
2023/04/30 05:06:30;;;;;;;12.5;9.7;;;;;;;11.33;89.88379;938.5905;;;;
2023/04/30 05:08:57;;;;;;;13.4;9.3;;;;;;;11.31;89.8916;938.6214;;;;
2023/04/30 05:11:50;;;;;;;12.4;9;;;;;;;11.28;90.14941;938.6149;;;;
2023/04/30 05:14:19;;;;;;;13.7;9.3;;;;;;;11.29;90.66602;938.6277;;;;
2023/04/30 05:17:09;;;;;;;14.6;9.5;;;;;;;11.32;90.09961;938.6342;;;;
2023/04/30 05:19:19;;;;;;;12.2;8.8;;;;;;;11.37;90.14551;938.6609;;;;
2023/04/30 05:21:45;;;;;;;11.5;8.9;;;;;;;11.41;90.1416;938.6614;;;;
2023/04/30 05:24:12;;;;;;;12.7;8.9;;;;;;;11.3;90.57617;938.7106;;;;
2023/04/30 05:26:37;;;;;;;14.7;8.9;;;;;;;11.15;91.23047;938.733;;;;
2023/04/30 05:29:05;;;;;;;13.2;9.1;;;;;;;11.07;92.43652;938.7986;;;;
2023/04/30 05:31:31;;;;;;;13.1;9.4;;;;;;;11.22;92.08008;938.7586;;;;
2023/04/30 05:33:58;;;;;;;12.6;9.6;;;;;;;11.33;91.65723;938.7514;;;;
2023/04/30 05:36:23;;;;;;;14.2;9.7;;;;;;;11.24;91.99414;938.7899;;;;
2023/04/30 05:38:52;;;;;;;14.1;10.4;;;;;;;11.1;92.22656;938.8124;;;;
2023/04/30 05:41:17;;;;;;;14;10.6;;;;;;;11.07;92.17285;938.8161;;;;
2023/04/30 05:43:45;;;;;;;15.1;10.6;;;;;;;11.15;92.4082;938.7324;;;;
2023/04/30 05:46:10;;;;;;;13.7;10.5;;;;;;;11.23;92.36816;938.7053;;;;
2023/04/30 05:52:02;;;;;;;13.8;10.3;;;;;;;11.13;91.86621;938.8389;;;;
2023/04/30 05:54:30;;;;;;;16.4;10.5;;;;;;;11.07;92.04785;938.7842;;;;
2023/04/30 05:56:56;;;;;;;13.8;10.6;;;;;;;11.08;92.30273;938.88;;;;
2023/04/30 05:59:23;;;;;;;14.8;10.7;;;;;;;11.02;92.65527;938.8762;;;;
2023/04/30 06:01:48;;;;;;;13.9;10.9;;;;;;;11.03;92.62305;938.8835;;;;
2023/04/30 06:04:18;;;;;;;14.9;11.1;;;;;;;10.97;92.76953;938.8683;;;;
2023/04/30 06:06:46;;;;;;;15.3;11.4;;;;;;;11.02;93.00977;938.8484;;;;
2023/04/30 06:09:15;;;;;;;13;10.3;;;;;;;11.05;92.4668;938.8972;;;;
2023/04/30 06:11:41;;;;;;;15.8;11.4;;;;;;;11.07;92.27637;938.8895;;;;
2023/04/30 06:14:09;;;;;;;15.9;11.5;;;;;;;11.11;92.48047;938.8578;;;;
2023/04/30 06:16:34;;;;;;;13.9;11;;;;;;;11.08;92.41699;938.8329;;;;
2023/04/30 06:19:04;;;;;;;16.2;11.5;;;;;;;11.19;92.14258;938.7661;;;;
2023/04/30 06:21:29;;;;;;;14.7;11.6;;;;;;;11.28;91.88574;938.8755;;;;
2023/04/30 06:31:16;;;;;;;13.9;10.3;;;;;;;11.33;90.77637;938.8113;;;;
2023/04/30 06:33:42;;;;;;;15.2;10.7;;;;;;;11.33;91.11914;938.8981;;;;
2023/04/30 06:36:12;;;;;;;14.6;10.2;;;;;;;11.45;91.16699;938.9095;;;;
2023/04/30 06:38:37;;;;;;;13.3;10.1;;;;;;;11.59;90.19043;938.9082;;;;
2023/04/30 06:41:07;;;;;;;14.2;10.1;;;;;;;11.64;90.14258;938.908;;;;
2023/04/30 06:43:35;;;;;;;14;10.3;;;;;;;11.67;89.73926;938.9705;;;;
2023/04/30 06:46:01;;;;;;;13.9;9.5;;;;;;;11.71;89.7793;938.8709;;;;
2023/04/30 06:54:21;;;;;;;15.1;10.6;;;;;;;11.78;89.35938;938.9211;;;;
2023/04/30 06:56:44;;;;;;;16.2;11;;;;;;;11.87;90.44336;938.9825;;;;
2023/04/30 06:59:11;;;;;;;15;10.9;;;;;;;11.91;89.08789;938.9453;;;;
2023/04/30 07:01:36;;;;;;;14.9;10.9;;;;;;;11.97;89.38672;939.0022;;;;
2023/04/30 07:04:04;;;;;;;15.4;11.1;;;;;;;11.85;89.94922;938.9745;;;;
2023/04/30 07:06:29;;;;;;;15;10.4;;;;;;;12;89.93262;939.004;;;;
2023/04/30 07:08:57;;;;;;;14.4;10.4;;;;;;;12.03;89.30859;938.9789;;;;
2023/04/30 07:11:22;;;;;;;15.3;10.1;;;;;;;11.96;89.09863;938.9647;;;;
2023/04/30 07:13:50;;;;;;;15.3;10.4;;;;;;;12.16;88.41797;938.894;;;;
2023/04/30 07:16:16;;;;;;;14.4;10.4;;;;;;;12.12;88.99316;938.8867;;;;
2023/04/30 07:18:47;;;;;;;14.1;10.7;;;;;;;12.22;88.38281;938.8547;;;;
2023/04/30 07:21:09;;;;;;;12.5;9.8;;;;;;;12.55;87.75098;938.8186;;;;
2023/04/30 07:23:36;;;;;;;13.3;10.2;;;;;;;12.81;86.32324;938.7882;;;;
2023/04/30 07:26:01;;;;;;;13.4;10;;;;;;;12.96;84.75781;938.796;;;;
2023/04/30 07:28:29;;;;;;;14.4;9.9;;;;;;;13;83.93848;938.7687;;;;
2023/04/30 07:31:36;;;;;;;12;8.9;;;;;;;12.96;83.42383;938.7679;;;;
2023/04/30 07:34:40;;;;;;;12.2;9.2;;;;;;;13.38;82.47266;938.6905;;;;
2023/04/30 07:37:08;;;;;;;11;8.8;;;;;;;13.33;81.48633;938.7106;;;;
2023/04/30 07:43:15;;;;;;;11.4;8.1;;;;;;;13.27;82.77051;938.6746;;;;
2023/04/30 07:45:41;;;;;;;11.9;9;;;;;;;13.48;81.38867;938.6851;;;;
2023/04/30 07:48:12;;;;;;;10.7;8;;;;;;;13.61;81.44629;938.6841;;;;
2023/04/30 07:50:42;;;;;;;11.3;8.3;;;;;;;13.42;82.30566;938.6468;;;;
2023/04/30 07:53:08;;;;;;;11.1;8.6;;;;;;;13.42;83.49121;938.6764;;;;
2023/04/30 07:55:36;;;;;;;10.2;7.5;;;;;;;14.52;78.12402;938.6556;;;;
2023/04/30 07:58:02;;;;;;;7.8;6.9;;;;;;;15.38;73.67188;938.5417;;;;
2023/04/30 08:00:32;;;;;;;9.5;7.3;;;;;;;15.17;75.04395;938.5938;;;;
2023/04/30 08:03:01;;;;;;;10.2;7.9;;;;;;;15.35;71.38086;938.5918;;;;
2023/04/30 08:05:31;;;;;;;8.4;6.9;;;;;;;15.33;72.65918;938.5647;;;;
2023/04/30 08:07:59;;;;;;;7.4;6.5;;;;;;;14.8;73.52734;938.6094;;;;
2023/04/30 08:10:25;;;;;;;8.7;7.3;;;;;;;14.79;73.53711;938.6552;;;;
2023/04/30 08:12:49;;;;;;;9.9;7;;;;;;;14.91;73.15527;938.657;;;;
2023/04/30 08:15:21;;;;;;;10;7.2;;;;;;;15;74.28711;938.6365;;;;
2023/04/30 08:17:47;;;;;;;7.9;5.9;;;;;;;14.93;72.33887;938.6794;;;;
2023/04/30 08:20:25;;;;;;;9.2;6.9;;;;;;;14.88;73.78516;938.6725;;;;
2023/04/30 08:22:48;;;;;;;9;7;;;;;;;15.01;72.67578;938.6356;;;;
2023/04/30 08:25:19;;;;;;;7.8;6.5;;;;;;;15.06;73.3291;938.6259;;;;
2023/04/30 08:27:46;;;;;;;9.4;6.7;;;;;;;15.11;72.64551;938.6183;;;;
2023/04/30 08:30:11;;;;;;;8.7;6.4;;;;;;;15.09;72.48145;938.5527;;;;
2023/04/30 08:32:36;;;;;;;9.8;6.8;;;;;;;15.25;72.77246;938.5341;;;;
2023/04/30 08:35:02;;;;;;;8.6;6.5;;;;;;;15.52;71.74316;938.5441;;;;
2023/04/30 08:37:27;;;;;;;7.7;5.9;;;;;;;15.57;71.54395;938.4697;;;;
2023/04/30 08:39:53;;;;;;;6.8;5.8;;;;;;;15.65;70.55273;938.4921;;;;
2023/04/30 08:42:20;;;;;;;8.3;5.8;;;;;;;15.83;70.36035;938.5106;;;;
2023/04/30 08:48:37;;;;;;;7.6;5.8;;;;;;;16.23;68.49414;938.4891;;;;
2023/04/30 08:51:04;;;;;;;7.5;6.1;;;;;;;16.07;70.85059;938.4875;;;;
2023/04/30 08:53:29;;;;;;;7.1;6.2;;;;;;;16.6;68.3418;938.5072;;;;
2023/04/30 08:59:30;;;;;;;6.7;5.1;;;;;;;17.01;67.67676;938.5175;;;;
2023/04/30 09:01:57;;;;;;;5.3;4.8;;;;;;;17.32;65.5791;938.5327;;;;
2023/04/30 09:04:22;;;;;;;6;5.3;;;;;;;16.96;66.60352;938.499;;;;
2023/04/30 09:06:52;;;;;;;7.8;5.3;;;;;;;17.1;67.78516;938.4723;;;;
2023/04/30 09:09:25;;;;;;;6.4;4.8;;;;;;;17.14;66.4209;938.5184;;;;
2023/04/30 09:11:50;;;;;;;5.9;4.8;;;;;;;17.19;65.75781;938.4797;;;;
2023/04/30 09:14:40;;;;;;;6.2;4.8;;;;;;;17.48;63.73633;938.5383;;;;
2023/04/30 09:17:09;;;;;;;5.2;4.4;;;;;;;18.34;60.52344;938.5676;;;;
2023/04/30 09:19:33;;;;;;;5.8;4.5;;;;;;;18.81;59.74023;938.47;;;;
2023/04/30 09:22:00;;;;;;;6.1;4.8;;;;;;;17.77;63.91602;938.4688;;;;
2023/04/30 09:24:31;;;;;;;5.9;4.7;;;;;;;18.06;63.7627;938.5356;;;;
2023/04/30 09:26:56;;;;;;;4.9;4.4;;;;;;;18.26;60.58203;938.5176;;;;
2023/04/30 09:29:24;;;;;;;5.5;4.3;;;;;;;18.57;59.29883;938.4497;;;;
2023/04/30 09:31:55;;;;;;;4.8;4.2;;;;;;;19.07;58.17969;938.3889;;;;
2023/04/30 09:34:26;;;;;;;6.5;4.4;;;;;;;19.13;58.9209;938.3713;;;;
2023/04/30 09:36:55;;;;;;;5.9;4.5;;;;;;;19.52;56.61914;938.3286;;;;
2023/04/30 09:39:20;;;;;;;5.4;4.8;;;;;;;19.31;58.12988;938.3053;;;;
2023/04/30 09:41:45;;;;;;;6.1;4.9;;;;;;;19.47;57.65039;938.2765;;;;
2023/04/30 09:44:17;;;;;;;5.9;4.8;;;;;;;20.24;55.68457;938.1938;;;;
2023/04/30 09:46:42;;;;;;;5.2;4.3;;;;;;;20.62;53.31348;938.2597;;;;
2023/04/30 09:49:11;;;;;;;4.8;4.3;;;;;;;20.57;54.25293;938.2054;;;;
2023/04/30 09:51:36;;;;;;;4.7;4.1;;;;;;;20.98;54.03516;938.2261;;;;
2023/04/30 09:54:05;;;;;;;6.9;4.4;;;;;;;20.42;54.09375;938.1957;;;;
2023/04/30 09:56:30;;;;;;;4.5;4.1;;;;;;;20.75;54.03027;938.1412;;;;
2023/04/30 09:58:59;;;;;;;5.3;3.9;;;;;;;20.97;52.93457;938.1769;;;;
2023/04/30 10:01:25;;;;;;;5;4.4;;;;;;;20.83;54.76465;938.1156;;;;
2023/04/30 10:03:50;;;;;;;4.9;4.4;;;;;;;20.3;56.52148;938.0944;;;;
2023/04/30 10:06:18;;;;;;;5.8;4.9;;;;;;;20.02;55.72559;938.1453;;;;
2023/04/30 10:08:46;;;;;;;5.3;4;;;;;;;19.75;59.24902;938.1214;;;;
2023/04/30 10:11:15;;;;;;;4.7;3.8;;;;;;;20.41;54.0459;938.0374;;;;
2023/04/30 10:13:38;;;;;;;4.2;3.8;;;;;;;20.46;55.24512;938.0313;;;;
2023/04/30 10:16:04;;;;;;;4.4;3.7;;;;;;;20.73;52.82422;937.9193;;;;
2023/04/30 10:18:35;;;;;;;4.8;4;;;;;;;19.92;55.1543;937.928;;;;
2023/04/30 10:21:00;;;;;;;4.8;4.1;;;;;;;19.97;57.19043;937.9218;;;;
2023/04/30 10:23:31;;;;;;;7.1;4.2;;;;;;;20.26;55.29102;937.8293;;;;
2023/04/30 10:25:56;;;;;;;5.2;3.9;;;;;;;21.01;51.41895;937.8655;;;;
2023/04/30 10:28:23;;;;;;;4.4;3.9;;;;;;;20.54;53.375;937.8396;;;;
2023/04/30 10:30:48;;;;;;;5.1;3.9;;;;;;;19.71;56.89941;937.7863;;;;
2023/04/30 10:33:13;;;;;;;5.1;4.3;;;;;;;20.12;55.34277;937.7539;;;;
2023/04/30 10:35:38;;;;;;;3.9;3.5;;;;;;;20.12;56.33496;937.7441;;;;
2023/04/30 10:38:06;;;;;;;5.4;3.9;;;;;;;20.27;54.5791;937.7481;;;;
2023/04/30 10:51:35;;;;;;;3.8;3.4;;;;;;;21.47;51.2959;937.6074;;;;
2023/04/30 10:54:00;;;;;;;4.3;3.2;;;;;;;21.64;49.37305;937.5854;;;;
2023/04/30 10:56:26;;;;;;;3.7;3.4;;;;;;;21.62;50.7168;937.5834;;;;
2023/04/30 10:58:53;;;;;;;4.1;3.2;;;;;;;21.59;49.89355;937.549;;;;
2023/04/30 11:01:18;;;;;;;4.5;3.5;;;;;;;22.44;48.32324;937.5608;;;;
2023/04/30 11:03:43;;;;;;;3.8;3.2;;;;;;;22.25;50.81152;937.4881;;;;
2023/04/30 11:08:33;;;;;;;4.2;3.3;;;;;;;21.28;50.99414;937.415;;;;
2023/04/30 11:11:00;;;;;;;4;3.4;;;;;;;21.1;52.12012;937.4272;;;;
2023/04/30 11:13:25;;;;;;;4.6;3.2;;;;;;;20.85;52.45215;937.478;;;;
2023/04/30 11:15:54;;;;;;;3.8;3.4;;;;;;;20.5;52.9248;937.4453;;;;
2023/04/30 11:18:19;;;;;;;4.8;3.6;;;;;;;19.98;53.53906;937.3881;;;;
2023/04/30 11:20:45;;;;;;;4.2;3.2;;;;;;;20.01;54.34766;937.41;;;;
2023/04/30 11:23:14;;;;;;;4;3.6;;;;;;;19.97;55.49707;937.4095;;;;
2023/04/30 11:25:39;;;;;;;3.4;3.1;;;;;;;20.62;52.0166;937.3802;;;;
2023/04/30 11:28:04;;;;;;;3.5;2.9;;;;;;;22.06;49.0332;937.3834;;;;
2023/04/30 11:30:29;;;;;;;3.2;2.9;;;;;;;21.85;50.39258;937.3376;;;;
2023/04/30 11:32:54;;;;;;;4;2.9;;;;;;;21.38;50.36133;937.2885;;;;
2023/04/30 11:35:21;;;;;;;3.9;2.7;;;;;;;21.16;49.01563;937.2885;;;;
2023/04/30 11:37:46;;;;;;;3.7;2.6;;;;;;;21.39;51.93262;937.2935;;;;
2023/04/30 11:40:11;;;;;;;2.8;2.5;;;;;;;22.37;48.96094;937.3049;;;;
2023/04/30 11:42:40;;;;;;;2.5;2.3;;;;;;;23.41;44.76074;937.2924;;;;
2023/04/30 11:45:05;;;;;;;3;2.5;;;;;;;23.24;44.14453;937.2483;;;;
2023/04/30 11:47:33;;;;;;;3;2.5;;;;;;;22;46.14258;937.2697;;;;
2023/04/30 11:50:02;;;;;;;3.3;3;;;;;;;21.09;49.22949;937.2845;;;;
2023/04/30 11:52:31;;;;;;;2.4;2.2;;;;;;;21.34;49.53711;937.1974;;;;
2023/04/30 11:54:59;;;;;;;2.8;2.6;;;;;;;20.39;51.60449;937.1827;;;;
2023/04/30 11:57:23;;;;;;;4;2.6;;;;;;;20.49;54.78125;937.1099;;;;
2023/04/30 11:59:48;;;;;;;4.5;3.1;;;;;;;20.05;54.62207;937.1301;;;;
2023/04/30 12:02:20;;;;;;;3.3;3;;;;;;;19.18;55.75977;937.1222;;;;
2023/04/30 12:04:48;;;;;;;2.8;2.6;;;;;;;19.95;54.30566;937.1303;;;;
2023/04/30 12:07:13;;;;;;;4;2.8;;;;;;;20.14;54.70313;937.0644;;;;
2023/04/30 12:09:38;;;;;;;3;2.6;;;;;;;20.47;54.42871;937.0335;;;;
2023/04/30 12:12:05;;;;;;;3;2.7;;;;;;;19.95;53.99023;937.0432;;;;
2023/04/30 12:14:32;;;;;;;2.9;2.6;;;;;;;19.01;56.1582;936.988;;;;
2023/04/30 12:16:56;;;;;;;3.3;2.6;;;;;;;18.78;57.96777;936.9756;;;;
2023/04/30 12:19:23;;;;;;;2.7;2.5;;;;;;;18.35;57.58398;936.9559;;;;
2023/04/30 12:21:47;;;;;;;3;2.5;;;;;;;18.6;59.66406;936.9174;;;;
2023/04/30 12:26:38;;;;;;;3.1;2.4;;;;;;;18.53;58.67871;936.8077;;;;
2023/04/30 12:29:06;;;;;;;3.1;2.7;;;;;;;18.26;58.0957;936.8839;;;;
2023/04/30 12:31:32;;;;;;;2.9;2.6;;;;;;;17.84;63.26563;936.9308;;;;
2023/04/30 12:33:57;;;;;;;2.6;2.3;;;;;;;18.2;59.73828;936.8895;;;;
2023/04/30 12:36:22;;;;;;;2.3;2.1;;;;;;;17.46;59.30078;936.8915;;;;
2023/04/30 12:38:53;;;;;;;3.5;2.6;;;;;;;17.07;62.29688;936.9924;;;;
2023/04/30 12:41:21;;;;;;;2.9;2.1;;;;;;;17.56;59.28027;936.8978;;;;
2023/04/30 12:47:33;;;;;;;2.9;2.4;;;;;;;18.63;56.71484;936.8542;;;;
2023/04/30 12:50:01;;;;;;;3.8;2.1;;;;;;;18.07;58.48926;936.7885;;;;
2023/04/30 12:52:26;;;;;;;2.9;2.1;;;;;;;18.07;59.14063;936.8038;;;;
2023/04/30 12:54:55;;;;;;;2.2;2;;;;;;;18.58;57.78906;936.7283;;;;
2023/04/30 12:57:19;;;;;;;2.2;2;;;;;;;18.75;56.00684;936.7644;;;;
2023/04/30 12:59:45;;;;;;;2.2;2;;;;;;;19.01;54.92383;936.7025;;;;
2023/04/30 13:02:10;;;;;;;2.3;2.1;;;;;;;19.17;55.3623;936.7155;;;;
2023/04/30 13:04:35;;;;;;;2.6;2.4;;;;;;;18.88;57.3877;936.6266;;;;
2023/04/30 13:07:00;;;;;;;2.1;1.9;;;;;;;18.8;57.91211;936.6775;;;;
2023/04/30 13:09:29;;;;;;;1.9;1.7;;;;;;;19.13;56.7666;936.5938;;;;
2023/04/30 13:11:55;;;;;;;2.8;2.3;;;;;;;19.13;59.46973;936.488;;;;
2023/04/30 13:14:21;;;;;;;2.7;2.2;;;;;;;18.89;58.66797;936.5055;;;;
2023/04/30 13:16:47;;;;;;;2.2;2;;;;;;;18.69;58.45508;936.527;;;;
2023/04/30 13:19:17;;;;;;;2.5;2.2;;;;;;;18.78;57.32617;936.5491;;;;
2023/04/30 13:21:45;;;;;;;2.4;2.2;;;;;;;18.96;56.39551;936.502;;;;
2023/04/30 13:24:10;;;;;;;2.8;2.4;;;;;;;18.96;57.28125;936.4509;;;;
2023/04/30 13:26:36;;;;;;;3.2;2.1;;;;;;;19.04;56.88379;936.5179;;;;
2023/04/30 13:29:03;;;;;;;2.6;2.2;;;;;;;19.43;54.3125;936.4902;;;;
2023/04/30 13:31:27;;;;;;;2.2;2;;;;;;;19.62;52.67969;936.4805;;;;
2023/04/30 13:33:54;;;;;;;2.4;2.1;;;;;;;19.7;54.42676;936.3565;;;;
2023/04/30 13:36:18;;;;;;;4.4;2.2;;;;;;;19.76;54.62012;936.3524;;;;
2023/04/30 13:38:46;;;;;;;2;1.8;;;;;;;20.03;52.89258;936.3474;;;;
2023/04/30 13:41:11;;;;;;;2.5;2.3;;;;;;;19.48;53.54883;936.3395;;;;
2023/04/30 13:43:40;;;;;;;4;2.3;;;;;;;18.98;56.59668;936.3287;;;;
2023/04/30 13:46:03;;;;;;;3.3;2.3;;;;;;;19.17;56.89941;936.3911;;;;
2023/04/30 13:49:30;;;;;;;3.3;2;;;;;;;19.34;53.83594;936.3875;;;;
2023/04/30 13:52:15;;;;;;;2.3;2.1;;;;;;;19.22;54.79883;936.318;;;;
2023/04/30 13:54:43;;;;;;;2.6;2;;;;;;;19.14;54.63672;936.2239;;;;
2023/04/30 13:57:09;;;;;;;2.6;2.2;;;;;;;19.12;54.08789;936.3156;;;;
2023/04/30 13:59:37;;;;;;;2.4;1.9;;;;;;;18.99;54.44336;936.2914;;;;
2023/04/30 14:02:02;;;;;;;2.1;1.9;;;;;;;19.08;54.74707;936.3311;;;;
2023/04/30 14:08:09;;;;;;;3;2.1;;;;;;;18.26;57.00391;936.3388;;;;
2023/04/30 14:10:34;;;;;;;3.9;2.4;;;;;;;18.36;55.83105;936.3767;;;;
2023/04/30 14:13:05;;;;;;;2.2;2;;;;;;;18.39;55.85742;936.3398;;;;
2023/04/30 14:15:31;;;;;;;2.6;2.2;;;;;;;18.51;55.3623;936.3234;;;;
2023/04/30 14:17:59;;;;;;;2.6;2.4;;;;;;;18.56;55.54199;936.3466;;;;
2023/04/30 14:20:24;;;;;;;2.5;2.1;;;;;;;18.62;54.94434;936.358;;;;
2023/04/30 14:22:52;;;;;;;2.7;2.5;;;;;;;18.57;55.38086;936.3833;;;;
2023/04/30 14:25:17;;;;;;;3.3;2.6;;;;;;;18.26;57.19043;936.3742;;;;
2023/04/30 14:27:46;;;;;;;2.4;2.2;;;;;;;18.31;55.7793;936.327;;;;
2023/04/30 14:30:10;;;;;;;2.8;2.5;;;;;;;18.21;57.56738;936.3105;;;;
2023/04/30 14:32:38;;;;;;;2.7;2.5;;;;;;;18.07;56.74707;936.3228;;;;
2023/04/30 14:35:03;;;;;;;3;2.7;;;;;;;18.26;56.23535;936.2913;;;;
2023/04/30 14:37:34;;;;;;;2.9;2.6;;;;;;;18.52;55.50195;936.1926;;;;
2023/04/30 14:40:00;;;;;;;2.4;2.2;;;;;;;18.75;54.76367;936.2512;;;;
2023/04/30 14:42:25;;;;;;;2.4;2.2;;;;;;;18.74;54.32031;936.2999;;;;
2023/04/30 14:44:52;;;;;;;2.7;2.3;;;;;;;18.66;54.2168;936.1769;;;;
2023/04/30 14:47:16;;;;;;;2.5;2.3;;;;;;;18.58;55.10254;936.2742;;;;
2023/04/30 14:49:45;;;;;;;2.7;2.5;;;;;;;18.52;54.9668;936.2184;;;;
2023/04/30 14:52:10;;;;;;;2.4;2.2;;;;;;;18.38;55.00781;936.1281;;;;
2023/04/30 14:54:37;;;;;;;3.9;2.7;;;;;;;18.48;54.47363;936.1566;;;;
2023/04/30 14:57:02;;;;;;;3.2;2.1;;;;;;;18.41;54.12793;936.1603;;;;
2023/04/30 14:59:28;;;;;;;2.5;2.3;;;;;;;18.26;55.2373;936.1219;;;;
2023/04/30 15:01:53;;;;;;;2.7;2.1;;;;;;;18.44;54.65527;936.1389;;;;
2023/04/30 15:04:23;;;;;;;2.3;2;;;;;;;18.63;55.55078;936.1245;;;;
2023/04/30 15:06:48;;;;;;;2.6;2.4;;;;;;;18.81;53.68945;936.1311;;;;
2023/04/30 15:09:15;;;;;;;2.3;2.1;;;;;;;18.79;53.62793;936.1244;;;;
2023/04/30 15:11:40;;;;;;;2.3;2.1;;;;;;;18.86;53.69434;936.1792;;;;
2023/04/30 15:14:06;;;;;;;2.6;2.4;;;;;;;18.79;54.39648;936.1573;;;;
2023/04/30 15:16:31;;;;;;;4.6;2.5;;;;;;;18.65;54.32031;936.1707;;;;
2023/04/30 15:18:57;;;;;;;2.7;2.4;;;;;;;18.49;54.47363;936.1152;;;;
2023/04/30 15:21:22;;;;;;;3.4;2.2;;;;;;;18.47;55.62305;936.1013;;;;
2023/04/30 15:23:52;;;;;;;3.1;2.4;;;;;;;18.04;56.37109;936.0455;;;;
2023/04/30 15:26:16;;;;;;;3;2.4;;;;;;;17.98;56.73438;936.0804;;;;
2023/04/30 15:28:43;;;;;;;2.4;2.2;;;;;;;17.84;56.69434;936.1164;;;;
2023/04/30 15:31:10;;;;;;;2.4;2.2;;;;;;;17.72;57.82617;936.1422;;;;
2023/04/30 15:33:40;;;;;;;2.5;2.3;;;;;;;17.51;58.7041;936.1742;;;;
2023/04/30 15:36:08;;;;;;;3;2.4;;;;;;;17.39;59.26855;936.1127;;;;